Time;durP1;ratioP1;P1;durP2;ratioP2;P2;SDS_P1;SDS_P2;PMS_P1;PMS_P2;Temp;Humidity;BMP_temperature;BMP_pressure;BME280_temperature;BME280_humidity;BME280_pressure;Samples;Min_cycle;Max_cycle;Signal;HPM_P1;HPM_P2
2022/01/18 00:01:43;;;;;;;63.75;7.80;;;7.20;99.90;;;;;;4959163;28;20484;-84
2022/01/18 00:04:08;;;;;;;65.45;8.57;;;7.30;99.90;;;;;;4973402;28;20053;-84
2022/01/18 00:06:35;;;;;;;75.38;9.30;;;7.30;99.90;;;;;;4991109;28;20077;-84
2022/01/18 00:09:01;;;;;;;65.57;9.40;;;7.30;99.90;;;;;;4973393;28;20105;-84
2022/01/18 00:11:30;;;;;;;60.00;7.95;;;7.30;99.90;;;;;;4991458;28;20050;-85
2022/01/18 00:14:02;;;;;;;62.65;7.85;;;7.90;99.90;;;;;;4991229;28;20039;-84
2022/01/18 00:16:38;;;;;;;72.97;9.38;;;8.10;99.90;;;;;;4943019;28;20499;-85
2022/01/18 00:19:08;;;;;;;66.28;9.75;;;7.30;99.90;;;;;;4942874;28;20039;-84
2022/01/18 00:22:05;;;;;;;62.85;9.40;;;7.30;99.90;;;;;;4991234;28;20058;-84
2022/01/18 00:24:31;;;;;;;68.05;9.40;;;7.40;99.90;;;;;;4978344;28;20046;-84
2022/01/18 00:26:57;;;;;;;64.35;8.45;;;7.90;99.90;;;;;;4973949;28;20549;-84
2022/01/18 00:29:24;;;;;;;60.30;8.82;;;7.30;99.90;;;;;;4990638;28;20411;-85
2022/01/18 00:32:06;;;;;;;52.92;8.55;;;7.30;99.90;;;;;;4990849;28;20055;-86
2022/01/18 00:34:36;;;;;;;65.38;9.68;;;7.30;99.90;;;;;;4959085;28;20299;-85
2022/01/18 00:39:30;;;;;;;50.72;7.82;;;7.30;99.90;;;;;;4973577;28;20403;-85
2022/01/18 00:41:55;;;;;;;56.65;8.30;;;7.20;99.90;;;;;;4973780;28;20046;-86
2022/01/18 00:44:21;;;;;;;68.40;8.75;;;7.20;99.90;;;;;;4973190;28;20050;-85
2022/01/18 00:46:47;;;;;;;54.08;7.57;;;7.20;99.90;;;;;;4973140;28;20063;-87
2022/01/18 00:49:13;;;;;;;60.72;8.07;;;7.20;99.90;;;;;;4973388;28;20059;-84
2022/01/18 00:51:40;;;;;;;59.45;7.93;;;7.10;99.90;;;;;;4973475;28;20046;-84
2022/01/18 00:54:08;;;;;;;53.58;7.82;;;7.20;99.90;;;;;;4957091;28;20058;-83
2022/01/18 00:56:38;;;;;;;47.30;7.03;;;7.10;99.90;;;;;;4990539;28;20543;-84
2022/01/18 00:59:04;;;;;;;61.50;7.32;;;7.10;99.90;;;;;;4973707;28;20606;-85
2022/01/18 01:01:30;;;;;;;60.78;7.68;;;7.10;99.90;;;;;;4973071;28;20046;-84
2022/01/18 01:04:00;;;;;;;64.75;8.70;;;7.10;99.90;;;;;;4973295;28;20508;-86
2022/01/18 01:06:25;;;;;;;55.50;8.55;;;7.00;99.90;;;;;;4972623;28;20114;-84
2022/01/18 01:08:51;;;;;;;51.25;9.00;;;7.00;99.90;;;;;;4973086;28;20064;-85
2022/01/18 01:11:17;;;;;;;53.90;7.75;;;6.90;99.90;;;;;;4956824;28;20415;-84
2022/01/18 01:13:46;;;;;;;66.88;10.32;;;6.90;99.90;;;;;;4972668;28;20139;-84
2022/01/18 01:16:36;;;;;;;63.13;8.07;;;6.90;99.90;;;;;;4989909;28;20091;-84
2022/01/18 01:42:58;;;;;;;59.95;8.07;;;7.10;99.90;;;;;;4972630;28;20058;-85
2022/01/18 01:45:26;;;;;;;58.50;8.63;;;6.90;99.90;;;;;;4958230;28;20082;-85
2022/01/18 01:47:55;;;;;;;65.93;8.25;;;6.90;99.90;;;;;;4956963;28;20492;-86
2022/01/18 01:50:22;;;;;;;52.92;7.40;;;6.80;99.90;;;;;;4956519;28;20043;-84
2022/01/18 01:52:49;;;;;;;70.80;9.10;;;6.80;99.90;;;;;;4972524;28;20136;-86
2022/01/18 01:55:15;;;;;;;66.32;8.18;;;7.00;99.90;;;;;;4989586;28;20129;-85
2022/01/18 01:57:41;;;;;;;57.28;7.82;;;6.90;99.90;;;;;;4972169;28;20406;-85
2022/01/18 02:00:11;;;;;;;54.35;9.27;;;6.80;99.90;;;;;;4956361;28;20054;-84
2022/01/18 02:02:37;;;;;;;59.92;10.45;;;6.80;99.90;;;;;;4971925;28;20054;-85
2022/01/18 02:05:03;;;;;;;69.43;9.25;;;6.90;99.90;;;;;;4989741;28;20050;-85
2022/01/18 02:07:29;;;;;;;74.28;10.85;;;6.90;99.90;;;;;;4940623;28;20514;-84
2022/01/18 02:09:55;;;;;;;52.80;8.20;;;6.80;99.90;;;;;;4972157;28;20062;-85
2022/01/18 02:12:20;;;;;;;55.10;7.88;;;6.80;99.90;;;;;;4989140;28;20137;-84
2022/01/18 02:14:51;;;;;;;60.63;9.10;;;6.90;99.90;;;;;;4955876;28;20084;-84
2022/01/18 02:22:47;;;;;;;66.80;9.32;;;6.80;99.90;;;;;;4972153;28;20070;-84
2022/01/18 02:25:12;;;;;;;59.97;8.73;;;6.70;99.90;;;;;;4989265;28;20043;-85
2022/01/18 02:27:38;;;;;;;66.50;8.40;;;6.70;99.90;;;;;;4988910;28;20061;-84
2022/01/18 02:30:04;;;;;;;65.88;9.88;;;6.70;99.90;;;;;;4988967;28;20058;-89
2022/01/18 02:32:30;;;;;;;71.55;10.05;;;6.70;99.90;;;;;;4955120;28;20058;-84
2022/01/18 02:34:56;;;;;;;75.18;9.93;;;6.70;99.90;;;;;;4988607;28;20046;-84
2022/01/18 02:37:21;;;;;;;62.72;9.50;;;6.70;99.90;;;;;;4971682;28;20437;-83
2022/01/18 02:39:47;;;;;;;70.85;10.98;;;6.70;99.90;;;;;;4989296;28;20271;-83
2022/01/18 02:42:15;;;;;;;74.93;9.88;;;6.70;99.90;;;;;;4988931;28;20100;-84
2022/01/18 02:44:42;;;;;;;58.60;9.43;;;6.70;99.90;;;;;;4971280;28;20052;-84
2022/01/18 02:47:07;;;;;;;59.85;10.40;;;6.80;99.90;;;;;;4988803;28;20058;-83
2022/01/18 02:49:33;;;;;;;68.47;9.52;;;6.70;99.90;;;;;;4954951;28;20061;-83
2022/01/18 02:52:00;;;;;;;56.85;9.32;;;6.70;99.90;;;;;;4955702;28;20121;-83
2022/01/18 02:54:25;;;;;;;69.72;10.77;;;7.20;99.90;;;;;;4971080;28;20120;-82
2022/01/18 02:56:56;;;;;;;66.68;11.07;;;6.70;99.90;;;;;;4955001;28;20050;-84
2022/01/18 02:59:36;;;;;;;57.75;10.07;;;6.70;99.90;;;;;;4971205;28;20404;-85
2022/01/18 03:05:00;;;;;;;54.13;11.10;;;6.70;99.90;;;;;;4957824;28;20526;-87
2022/01/18 03:07:25;;;;;;;59.80;9.65;;;6.80;99.90;;;;;;4988111;28;20046;-85
2022/01/18 03:09:51;;;;;;;58.83;9.35;;;6.60;99.90;;;;;;4971078;28;20053;-85
2022/01/18 03:12:16;;;;;;;49.35;8.65;;;6.70;99.90;;;;;;4988686;28;20555;-85
2022/01/18 03:14:42;;;;;;;44.25;8.55;;;6.60;99.90;;;;;;4988049;28;20082;-86
2022/01/18 03:17:08;;;;;;;56.65;9.10;;;6.70;99.90;;;;;;4988771;28;20055;-85
2022/01/18 03:19:34;;;;;;;46.30;7.45;;;6.70;99.90;;;;;;4988136;28;20480;-85
2022/01/18 03:21:59;;;;;;;44.45;7.63;;;6.60;99.90;;;;;;4971064;28;20479;-84
2022/01/18 03:29:35;;;;;;;43.60;7.00;;;7.80;99.90;;;;;;4971095;28;20404;-85
2022/01/18 03:32:01;;;;;;;37.28;6.20;;;6.70;99.90;;;;;;4988192;28;20054;-85
2022/01/18 03:34:26;;;;;;;39.05;6.63;;;6.80;99.90;;;;;;4954539;28;20051;-85
2022/01/18 03:36:53;;;;;;;42.55;7.45;;;6.80;99.90;;;;;;4970937;28;20042;-86
2022/01/18 03:39:19;;;;;;;37.17;7.05;;;6.80;99.90;;;;;;4988351;28;20054;-84
2022/01/18 03:41:52;;;;;;;41.88;5.63;;;6.70;99.90;;;;;;4988041;28;20057;-83
2022/01/18 03:44:18;;;;;;;40.72;6.38;;;6.70;99.90;;;;;;4970957;28;20055;-84
2022/01/18 03:46:44;;;;;;;42.33;7.10;;;7.10;99.90;;;;;;4987604;28;20097;-85
2022/01/18 03:49:10;;;;;;;37.28;4.88;;;6.70;99.90;;;;;;4970693;28;20146;-86
2022/01/18 03:51:36;;;;;;;35.15;4.65;;;6.80;99.90;;;;;;4987914;28;20119;-85
2022/01/18 03:54:01;;;;;;;26.02;5.13;;;6.70;99.90;;;;;;4988057;28;20055;-85
2022/01/18 03:56:27;;;;;;;27.90;4.70;;;6.70;99.90;;;;;;4987849;28;20050;-87
2022/01/18 03:58:53;;;;;;;37.67;6.07;;;6.80;99.90;;;;;;4988045;28;20051;-85
2022/01/18 04:01:19;;;;;;;31.98;5.43;;;6.80;99.90;;;;;;4970821;28;20503;-85
2022/01/18 04:03:45;;;;;;;35.70;5.80;;;6.70;99.90;;;;;;4987587;28;20384;-85
2022/01/18 04:06:10;;;;;;;28.60;4.95;;;6.80;99.90;;;;;;4987961;28;20049;-85
2022/01/18 04:08:36;;;;;;;31.70;5.68;;;6.70;99.90;;;;;;4987378;28;20054;-84
2022/01/18 04:11:01;;;;;;;30.65;5.10;;;6.70;99.90;;;;;;4973658;28;20380;-84
2022/01/18 04:13:27;;;;;;;37.35;5.65;;;7.70;99.90;;;;;;4973854;28;20051;-84
2022/01/18 04:15:53;;;;;;;35.83;5.63;;;6.70;99.90;;;;;;4973547;28;20057;-82
2022/01/18 04:28:52;;;;;;;32.42;6.60;;;6.70;99.90;;;;;;4973415;28;20637;-84
2022/01/18 04:31:18;;;;;;;34.60;6.22;;;6.70;99.90;;;;;;4957745;28;20050;-85
2022/01/18 04:33:43;;;;;;;27.30;5.85;;;6.60;99.90;;;;;;4990492;28;20047;-85
2022/01/18 04:36:09;;;;;;;26.75;6.38;;;6.60;99.90;;;;;;4991074;28;20042;-86
2022/01/18 04:38:35;;;;;;;40.65;5.97;;;6.60;99.90;;;;;;4956981;28;20054;-84
2022/01/18 04:41:06;;;;;;;31.10;5.50;;;6.70;99.90;;;;;;4973481;28;20445;-84
2022/01/18 04:43:51;;;;;;;29.23;5.32;;;6.60;99.90;;;;;;4974222;28;20106;-84
2022/01/18 04:49:01;;;;;;;38.67;6.85;;;6.70;99.90;;;;;;4973556;28;20058;-87
2022/01/18 04:51:27;;;;;;;33.20;5.28;;;6.70;99.90;;;;;;4941775;28;20384;-84
2022/01/18 04:53:55;;;;;;;34.13;5.35;;;6.70;99.90;;;;;;4972764;28;20053;-85
2022/01/18 04:59:00;;;;;;;30.33;5.10;;;6.60;99.90;;;;;;4944444;28;20062;-85
2022/01/18 05:01:26;;;;;;;25.23;4.75;;;6.60;99.90;;;;;;4973387;28;20051;-84
2022/01/18 05:03:51;;;;;;;27.27;4.95;;;6.60;99.90;;;;;;4990189;28;20046;-84
2022/01/18 05:06:18;;;;;;;30.63;4.65;;;6.60;99.90;;;;;;4972867;28;20050;-86
2022/01/18 05:08:44;;;;;;;31.67;4.30;;;7.20;99.90;;;;;;4972750;28;20046;-84
2022/01/18 05:11:14;;;;;;;21.48;3.72;;;6.60;99.90;;;;;;4990141;28;20069;-84
2022/01/18 05:17:08;;;;;;;28.25;4.72;;;6.70;99.90;;;;;;4972906;28;20061;-84
2022/01/18 05:22:58;;;;;;;25.08;3.33;;;6.60;99.90;;;;;;4972368;28;20511;-84
2022/01/18 05:24:25;;;;;;;29.38;4.25;;;6.60;99.90;;;;;;4959071;28;20057;-84
2022/01/18 05:26:51;;;;;;;27.23;4.50;;;7.20;99.90;;;;;;4972695;28;20058;-85
2022/01/18 05:29:17;;;;;;;31.17;4.10;;;6.60;99.90;;;;;;4956616;28;20139;-84
2022/01/18 05:31:43;;;;;;;24.05;4.03;;;7.60;99.90;;;;;;4989411;28;20087;-86
2022/01/18 05:34:09;;;;;;;39.03;5.65;;;6.80;99.90;;;;;;4956433;28;20046;-85
2022/01/18 05:36:34;;;;;;;27.75;4.40;;;6.60;99.90;;;;;;4990089;28;20046;-84
2022/01/18 05:39:00;;;;;;;28.58;4.05;;;6.60;99.90;;;;;;4989670;28;20508;-83
2022/01/18 05:41:26;;;;;;;25.75;4.53;;;6.60;99.90;;;;;;4972592;28;20093;-84
2022/01/18 05:43:51;;;;;;;27.38;4.75;;;7.20;99.90;;;;;;4972273;28;20115;-86
2022/01/18 05:46:17;;;;;;;23.40;3.88;;;6.50;99.90;;;;;;4972430;28;20054;-85
2022/01/18 05:48:42;;;;;;;30.10;4.13;;;6.50;99.90;;;;;;4989180;28;20050;-83
2022/01/18 05:51:08;;;;;;;26.65;4.72;;;6.60;99.90;;;;;;4972297;28;20054;-85
2022/01/18 05:53:35;;;;;;;24.88;3.88;;;6.60;99.90;;;;;;4989882;28;20051;-85
2022/01/18 05:56:01;;;;;;;26.27;3.72;;;6.60;99.90;;;;;;4971928;28;20082;-86
2022/01/18 05:58:27;;;;;;;20.38;3.40;;;6.50;99.90;;;;;;4972857;28;20133;-87
2022/01/18 06:00:54;;;;;;;33.45;5.57;;;6.50;99.90;;;;;;4990837;28;20129;-86
2022/01/18 06:03:28;;;;;;;31.83;4.63;;;7.00;99.90;;;;;;4944826;28;20058;-88
2022/01/18 06:08:39;;;;;;;20.70;3.80;;;6.50;99.90;;;;;;4958799;28;20112;-88
2022/01/18 06:11:04;;;;;;;21.02;3.47;;;6.50;99.90;;;;;;4989328;28;20050;-88
2022/01/18 06:13:30;;;;;;;23.85;4.10;;;6.50;99.90;;;;;;4971558;28;20113;-85
2022/01/18 06:15:56;;;;;;;20.25;4.10;;;6.50;99.90;;;;;;4988150;28;20046;-85
2022/01/18 06:18:22;;;;;;;20.92;4.10;;;6.50;99.90;;;;;;4989055;28;20049;-85
2022/01/18 06:20:48;;;;;;;14.77;3.55;;;6.50;99.90;;;;;;4971038;28;20057;-87
2022/01/18 06:23:17;;;;;;;23.15;5.28;;;6.50;99.90;;;;;;4989069;28;20046;-86
2022/01/18 06:25:43;;;;;;;29.10;5.50;;;6.50;99.90;;;;;;4939494;28;20119;-85
2022/01/18 06:28:08;;;;;;;23.50;4.13;;;6.60;99.90;;;;;;4954963;28;20046;-85
2022/01/18 06:30:34;;;;;;;25.05;3.42;;;6.50;99.90;;;;;;4971129;28;20130;-85
2022/01/18 06:33:00;;;;;;;20.58;3.13;;;6.50;99.90;;;;;;4969808;28;20058;-85
2022/01/18 06:35:25;;;;;;;22.48;4.00;;;6.60;99.90;;;;;;4988327;28;20069;-85
2022/01/18 06:37:51;;;;;;;22.23;3.80;;;6.50;99.90;;;;;;4970887;28;20058;-85
2022/01/18 06:40:17;;;;;;;24.40;3.47;;;6.60;99.90;;;;;;4988527;28;20047;-84
2022/01/18 06:42:43;;;;;;;20.75;3.67;;;6.50;99.90;;;;;;4955128;28;20089;-84
2022/01/18 06:45:09;;;;;;;22.10;3.60;;;6.50;99.90;;;;;;4970179;28;20137;-83
2022/01/18 06:47:36;;;;;;;20.90;4.15;;;6.50;99.90;;;;;;4988377;28;20061;-83
2022/01/18 06:50:03;;;;;;;25.23;4.03;;;6.50;99.90;;;;;;4954905;28;20046;-84
2022/01/18 06:52:28;;;;;;;21.13;4.63;;;6.50;99.90;;;;;;4971268;28;20069;-85
2022/01/18 06:54:54;;;;;;;20.33;4.10;;;6.50;99.90;;;;;;4970342;28;20046;-84
2022/01/18 06:57:20;;;;;;;17.55;4.28;;;6.50;99.90;;;;;;4971144;28;20057;-85
2022/01/18 06:59:45;;;;;;;22.00;3.95;;;6.50;99.90;;;;;;4970962;28;20055;-84
2022/01/18 07:02:11;;;;;;;23.85;3.60;;;6.50;99.90;;;;;;4987732;28;20112;-84
2022/01/18 07:04:37;;;;;;;18.08;3.80;;;6.50;99.90;;;;;;4970942;28;20039;-84
2022/01/18 07:07:03;;;;;;;16.90;2.95;;;6.50;99.90;;;;;;4970440;28;20433;-84
2022/01/18 07:09:29;;;;;;;22.27;5.18;;;6.50;99.90;;;;;;4988060;28;20415;-85
2022/01/18 07:11:56;;;;;;;20.67;3.20;;;6.50;99.90;;;;;;4987480;28;20056;-87
2022/01/18 07:14:21;;;;;;;19.50;3.95;;;6.50;99.90;;;;;;4970770;28;20046;-84
2022/01/18 07:16:47;;;;;;;13.05;2.90;;;6.50;99.90;;;;;;4954873;28;20125;-83
2022/01/18 07:19:13;;;;;;;16.40;4.60;;;6.50;99.90;;;;;;4987598;28;20042;-84
2022/01/18 07:21:38;;;;;;;19.63;3.25;;;6.50;99.90;;;;;;4970935;28;20514;-84
2022/01/18 07:24:14;;;;;;;21.38;3.15;;;6.50;99.90;;;;;;4970160;28;20042;-86
2022/01/18 07:26:40;;;;;;;25.17;4.32;;;6.50;99.90;;;;;;4955957;28;20050;-84
2022/01/18 07:29:05;;;;;;;18.33;5.13;;;6.50;99.90;;;;;;4987241;28;20100;-85
2022/01/18 07:31:31;;;;;;;14.93;4.50;;;6.50;99.90;;;;;;4988151;28;20062;-84
2022/01/18 07:33:57;;;;;;;15.32;4.78;;;6.60;99.90;;;;;;4970210;28;20038;-88
2022/01/18 07:36:23;;;;;;;14.63;4.50;;;6.50;99.90;;;;;;4970606;28;20560;-84
2022/01/18 07:38:48;;;;;;;23.50;4.05;;;6.50;99.90;;;;;;4970502;28;20058;-84
2022/01/18 07:41:14;;;;;;;19.33;3.95;;;6.50;99.90;;;;;;4969824;28;20054;-84
2022/01/18 07:43:40;;;;;;;21.10;3.80;;;7.30;99.90;;;;;;4971907;28;20046;-84
2022/01/18 07:46:06;;;;;;;16.42;3.90;;;6.60;99.90;;;;;;4990562;28;20058;-84
2022/01/18 07:48:32;;;;;;;15.98;3.78;;;6.60;99.90;;;;;;4942251;28;20489;-85
2022/01/18 07:50:58;;;;;;;18.10;3.38;;;6.60;99.90;;;;;;4958006;28;20046;-87
2022/01/18 07:53:24;;;;;;;27.30;3.85;;;6.60;99.90;;;;;;4957983;28;20047;-84
2022/01/18 07:55:50;;;;;;;15.18;2.67;;;6.60;99.90;;;;;;4973870;28;20054;-84
2022/01/18 07:58:16;;;;;;;18.35;2.95;;;6.60;99.90;;;;;;4973081;28;20050;-85
2022/01/18 08:00:42;;;;;;;17.70;2.80;;;6.60;99.90;;;;;;4974100;28;20046;-84
2022/01/18 08:03:08;;;;;;;17.20;3.83;;;6.60;99.90;;;;;;4990258;28;20088;-84
2022/01/18 08:05:34;;;;;;;22.13;4.22;;;6.60;99.90;;;;;;4957409;28;20399;-85
2022/01/18 08:07:59;;;;;;;18.63;3.40;;;6.60;99.90;;;;;;4990683;28;20046;-87
2022/01/18 08:10:30;;;;;;;17.08;3.53;;;6.60;99.90;;;;;;4973153;28;20065;-83
2022/01/18 08:13:01;;;;;;;16.73;3.72;;;6.60;99.90;;;;;;4990419;28;20104;-84
2022/01/18 08:15:29;;;;;;;23.75;3.90;;;6.60;99.90;;;;;;4925983;28;20046;-83
2022/01/18 08:17:55;;;;;;;20.33;4.35;;;6.60;99.90;;;;;;4990529;28;20090;-83
2022/01/18 08:20:21;;;;;;;21.35;3.50;;;6.60;99.90;;;;;;4972568;28;20081;-83
2022/01/18 08:22:46;;;;;;;17.38;3.70;;;6.60;99.90;;;;;;4956998;28;20158;-84
2022/01/18 08:25:13;;;;;;;17.42;4.22;;;6.60;99.90;;;;;;4972377;28;20078;-83
2022/01/18 08:27:39;;;;;;;19.35;4.18;;;6.70;99.90;;;;;;4990303;28;20407;-84
2022/01/18 08:30:06;;;;;;;32.83;6.07;;;6.70;99.90;;;;;;4956782;28;20407;-86
2022/01/18 08:32:32;;;;;;;16.45;5.03;;;6.70;99.90;;;;;;4957081;28;20096;-84
2022/01/18 08:34:58;;;;;;;22.98;4.20;;;6.70;99.90;;;;;;4990206;28;20082;-84
2022/01/18 08:37:23;;;;;;;23.35;4.57;;;6.70;99.90;;;;;;4972109;28;20073;-84
2022/01/18 08:39:49;;;;;;;18.98;4.88;;;6.70;99.90;;;;;;4973152;28;20403;-84
2022/01/18 08:42:15;;;;;;;22.48;4.78;;;6.70;99.90;;;;;;4972089;28;20449;-84
2022/01/18 08:44:43;;;;;;;20.10;4.68;;;6.70;99.90;;;;;;4972862;28;20096;-84
2022/01/18 08:47:11;;;;;;;17.15;4.35;;;6.70;99.90;;;;;;4972214;28;20054;-83
2022/01/18 08:49:36;;;;;;;15.63;4.45;;;6.70;99.90;;;;;;4989989;28;20050;-84
2022/01/18 08:52:03;;;;;;;21.60;4.70;;;6.70;99.90;;;;;;4972612;28;20058;-85
2022/01/18 08:54:28;;;;;;;24.42;5.93;;;6.70;99.90;;;;;;4939417;28;20065;-84
2022/01/18 08:56:54;;;;;;;19.90;5.18;;;6.70;99.90;;;;;;4989862;28;20050;-84
2022/01/18 08:59:20;;;;;;;19.45;5.18;;;6.70;99.90;;;;;;4989310;28;20042;-84
2022/01/18 09:01:45;;;;;;;20.33;4.53;;;6.80;99.90;;;;;;4972429;28;20106;-85
2022/01/18 09:04:11;;;;;;;24.08;5.28;;;6.80;99.90;;;;;;4971930;28;20038;-83
2022/01/18 09:06:38;;;;;;;25.52;5.22;;;6.80;99.90;;;;;;4972640;28;20130;-83
2022/01/18 09:09:05;;;;;;;21.17;4.93;;;6.90;99.90;;;;;;4989667;28;20062;-83
2022/01/18 09:11:31;;;;;;;18.27;4.85;;;6.90;99.90;;;;;;4972072;28;20054;-83
2022/01/18 09:13:57;;;;;;;18.23;5.03;;;7.00;99.90;;;;;;4972285;28;20038;-83
2022/01/18 09:16:23;;;;;;;20.67;6.47;;;7.00;99.90;;;;;;4955945;28;20058;-83
2022/01/18 09:18:50;;;;;;;19.13;5.43;;;7.00;99.90;;;;;;4972370;28;20082;-83
2022/01/18 09:21:16;;;;;;;21.27;5.78;;;7.10;99.90;;;;;;4971951;28;20104;-83
2022/01/18 09:23:42;;;;;;;19.52;5.07;;;7.00;99.90;;;;;;4989343;28;20453;-84
2022/01/18 09:26:08;;;;;;;19.02;5.72;;;7.10;99.90;;;;;;4989488;28;20082;-84
2022/01/18 09:28:34;;;;;;;20.08;5.63;;;7.10;99.90;;;;;;4971671;28;20468;-84
2022/01/18 09:31:00;;;;;;;20.38;5.50;;;7.20;99.90;;;;;;4989315;28;20139;-84
2022/01/18 09:33:26;;;;;;;24.73;6.20;;;7.20;99.90;;;;;;4971681;28;20078;-85
2022/01/18 09:35:51;;;;;;;20.30;5.65;;;7.30;99.90;;;;;;4989281;28;20415;-84
2022/01/18 09:38:17;;;;;;;21.08;6.22;;;7.30;99.90;;;;;;4971018;28;20104;-84
2022/01/18 09:40:45;;;;;;;18.30;5.45;;;7.40;99.90;;;;;;4989416;28;20046;-84
2022/01/18 09:43:13;;;;;;;16.73;5.15;;;7.50;99.90;;;;;;4972207;28;20042;-84
2022/01/18 09:45:41;;;;;;;17.45;5.22;;;7.60;99.90;;;;;;4939942;28;20062;-84
2022/01/18 09:48:07;;;;;;;20.30;5.32;;;7.40;99.90;;;;;;4956015;28;20058;-85
2022/01/18 09:50:34;;;;;;;18.85;5.32;;;7.50;99.90;;;;;;4955165;28;20162;-85
2022/01/18 09:53:00;;;;;;;22.17;6.35;;;7.50;99.90;;;;;;4939976;28;20059;-85
2022/01/18 09:55:27;;;;;;;19.13;5.15;;;7.60;99.90;;;;;;4939300;28;20042;-85
2022/01/18 09:57:54;;;;;;;15.65;5.10;;;7.60;99.90;;;;;;4955909;28;20061;-85
2022/01/18 10:00:20;;;;;;;15.55;5.70;;;7.60;99.90;;;;;;4970903;28;20051;-86
2022/01/18 10:02:45;;;;;;;20.52;4.55;;;7.70;99.90;;;;;;4988883;28;20058;-85
2022/01/18 10:05:22;;;;;;;27.85;5.22;;;7.70;99.90;;;;;;4971430;28;20505;-85
2022/01/18 10:07:55;;;;;;;16.20;4.30;;;7.70;99.90;;;;;;4971543;28;20515;-85
2022/01/18 10:10:21;;;;;;;13.77;4.13;;;7.80;99.90;;;;;;4967298;28;20418;-84
2022/01/18 10:12:55;;;;;;;13.40;3.80;;;7.80;99.90;;;;;;4952254;28;20042;-84
2022/01/18 10:15:21;;;;;;;17.08;4.35;;;7.80;99.90;;;;;;4968697;28;20043;-84
2022/01/18 10:17:46;;;;;;;15.43;4.47;;;7.90;99.90;;;;;;4970556;28;20053;-84
2022/01/18 10:20:17;;;;;;;12.88;3.20;;;8.40;99.90;;;;;;4935670;28;20069;-84
2022/01/18 10:22:48;;;;;;;16.10;4.00;;;7.90;99.90;;;;;;4952271;28;20060;-84
2022/01/18 10:25:20;;;;;;;15.98;3.97;;;8.00;99.90;;;;;;4952371;28;20043;-84
2022/01/18 10:27:49;;;;;;;12.93;3.90;;;8.00;99.90;;;;;;4951737;28;20093;-85
2022/01/18 10:30:19;;;;;;;14.50;3.97;;;8.00;99.90;;;;;;4969112;28;20086;-85
2022/01/18 10:33:08;;;;;;;17.23;3.72;;;7.90;99.90;;;;;;4952203;28;20055;-86
2022/01/18 10:35:34;;;;;;;18.20;3.90;;;7.80;99.90;;;;;;4951083;28;20055;-84
2022/01/18 10:38:00;;;;;;;15.07;4.07;;;8.10;99.90;;;;;;4935969;28;20378;-84
2022/01/18 10:40:26;;;;;;;17.33;4.30;;;8.00;99.90;;;;;;4935506;28;20065;-84
2022/01/18 10:42:53;;;;;;;19.65;4.10;;;8.30;99.90;;;;;;4968762;28;20050;-84
2022/01/18 10:45:23;;;;;;;16.85;3.88;;;8.20;99.90;;;;;;4935697;28;20058;-84
2022/01/18 10:47:57;;;;;;;19.45;3.60;;;8.20;99.90;;;;;;4968798;28;20051;-87
2022/01/18 10:50:23;;;;;;;15.70;4.20;;;8.20;99.90;;;;;;4952039;28;20063;-86
2022/01/18 10:52:52;;;;;;;18.35;4.38;;;8.20;99.90;;;;;;4935576;28;20043;-84
2022/01/18 10:55:25;;;;;;;11.32;3.78;;;8.20;99.90;;;;;;4936173;28;20066;-83
2022/01/18 10:57:51;;;;;;;13.95;4.30;;;8.20;99.90;;;;;;4951667;28;20050;-84
2022/01/18 11:00:24;;;;;;;17.13;4.32;;;8.00;99.90;;;;;;4951621;28;20090;-84
2022/01/18 11:02:52;;;;;;;14.35;3.40;;;8.30;99.90;;;;;;4968475;28;20051;-84
2022/01/18 11:05:24;;;;;;;9.98;3.92;;;8.00;99.90;;;;;;4935543;28;20156;-84
2022/01/18 11:07:50;;;;;;;16.65;3.60;;;8.10;99.90;;;;;;4935575;28;20563;-83
2022/01/18 11:10:17;;;;;;;13.27;4.05;;;8.20;99.90;;;;;;4935211;28;20137;-84
2022/01/18 11:12:58;;;;;;;15.30;3.30;;;8.20;99.90;;;;;;4950318;28;20472;-84
2022/01/18 11:15:26;;;;;;;13.85;3.85;;;8.20;99.90;;;;;;4952070;28;20093;-85
2022/01/18 11:17:58;;;;;;;12.75;3.60;;;8.40;99.90;;;;;;4951479;28;20058;-85
2022/01/18 11:20:28;;;;;;;15.50;3.70;;;8.20;99.90;;;;;;4939368;28;20047;-85
2022/01/18 11:22:54;;;;;;;13.80;3.90;;;8.20;99.90;;;;;;4972232;28;20191;-85
2022/01/18 11:25:19;;;;;;;16.27;3.35;;;8.20;99.90;;;;;;4938572;28;20512;-85
2022/01/18 11:27:49;;;;;;;15.73;3.05;;;8.10;99.90;;;;;;4938031;28;20055;-84
2022/01/18 11:30:16;;;;;;;12.32;3.17;;;8.20;99.90;;;;;;4954769;28;20046;-84
2022/01/18 11:32:41;;;;;;;14.00;3.50;;;8.30;99.90;;;;;;4937912;28;20047;-85
2022/01/18 11:35:12;;;;;;;20.83;4.90;;;8.20;99.90;;;;;;4954206;28;20058;-84
2022/01/18 11:38:03;;;;;;;14.15;4.45;;;8.10;99.90;;;;;;4953882;28;20051;-85
2022/01/18 11:40:48;;;;;;;16.42;5.00;;;8.10;99.90;;;;;;4954116;28;20051;-86
2022/01/18 11:43:14;;;;;;;21.77;5.63;;;8.00;99.90;;;;;;4939148;28;20108;-85
2022/01/18 11:45:43;;;;;;;22.10;5.75;;;8.00;99.90;;;;;;4921548;28;20063;-86
2022/01/18 11:48:14;;;;;;;16.23;4.72;;;8.10;99.90;;;;;;4954312;28;20051;-87
2022/01/18 11:50:46;;;;;;;14.07;4.97;;;8.00;99.90;;;;;;4938476;28;20050;-88
2022/01/18 11:53:28;;;;;;;16.25;5.72;;;8.00;99.90;;;;;;4971182;28;20131;-87
2022/01/18 11:55:58;;;;;;;16.90;5.22;;;8.00;99.90;;;;;;4939239;28;20543;-87
2022/01/18 11:58:25;;;;;;;14.18;5.60;;;8.10;99.90;;;;;;4937861;28;20756;-88
2022/01/18 12:00:58;;;;;;;17.63;4.97;;;8.10;99.90;;;;;;4937656;28;20265;-87
2022/01/18 12:03:31;;;;;;;13.17;4.63;;;8.20;99.90;;;;;;4954105;28;20481;-87
2022/01/18 12:05:59;;;;;;;17.73;4.80;;;8.20;99.90;;;;;;4971023;28;20047;-87
2022/01/18 12:08:51;;;;;;;16.25;4.35;;;8.30;99.90;;;;;;4953529;28;20086;-87
2022/01/18 12:11:26;;;;;;;14.93;5.10;;;8.30;99.90;;;;;;4971547;28;20090;-87
2022/01/18 12:13:57;;;;;;;17.23;5.18;;;8.20;99.90;;;;;;4970323;28;20050;-87
2022/01/18 12:16:26;;;;;;;14.52;4.32;;;8.20;99.90;;;;;;4954027;28;20096;-86
2022/01/18 12:18:57;;;;;;;14.90;5.25;;;8.20;99.90;;;;;;4937877;28;20381;-86
2022/01/18 12:21:27;;;;;;;18.30;4.75;;;8.10;99.90;;;;;;4954589;28;20405;-87
2022/01/18 12:23:54;;;;;;;15.15;4.45;;;8.20;99.90;;;;;;4953963;28;20058;-86
2022/01/18 12:26:40;;;;;;;19.40;5.65;;;8.10;99.90;;;;;;4938055;28;20100;-85
2022/01/18 12:34:43;;;;;;;18.00;4.45;;;8.10;99.90;;;;;;4937923;28;20054;-88
2022/01/18 12:37:13;;;;;;;17.48;4.10;;;8.00;99.90;;;;;;4938621;28;20149;-86
2022/01/18 12:45:02;;;;;;;14.52;4.20;;;8.00;99.90;;;;;;4937148;28;20065;-87
2022/01/18 12:47:28;;;;;;;12.35;3.78;;;8.10;99.90;;;;;;4938128;28;20075;-87
2022/01/18 12:49:54;;;;;;;17.13;4.18;;;8.10;99.90;;;;;;4920983;28;20128;-86
2022/01/18 12:52:20;;;;;;;14.32;3.70;;;8.00;99.90;;;;;;4937403;28;20055;-85
2022/01/18 12:54:48;;;;;;;11.65;3.60;;;8.10;99.90;;;;;;4921215;28;20488;-86
2022/01/18 12:57:18;;;;;;;17.33;4.07;;;8.00;99.90;;;;;;4953767;28;20047;-87
2022/01/18 12:59:59;;;;;;;14.48;4.03;;;7.90;99.90;;;;;;5040439;28;20089;-86
2022/01/18 13:02:26;;;;;;;17.85;3.88;;;7.80;99.90;;;;;;5041094;28;20143;-86
2022/01/18 13:05:03;;;;;;;13.00;3.90;;;7.80;99.90;;;;;;5056432;28;20046;-86
2022/01/18 13:07:28;;;;;;;9.65;3.42;;;7.90;99.90;;;;;;4989973;28;20133;-86
2022/01/18 13:09:58;;;;;;;17.77;4.05;;;8.00;99.90;;;;;;4989155;28;20184;-87
2022/01/18 13:12:30;;;;;;;13.60;3.65;;;7.80;99.90;;;;;;5024053;28;20502;-86
2022/01/18 13:14:57;;;;;;;11.85;3.35;;;7.70;99.90;;;;;;5023244;28;20140;-86
2022/01/18 13:23:03;;;;;;;14.13;3.83;;;7.70;99.90;;;;;;5056597;28;20088;-86
2022/01/18 13:25:29;;;;;;;13.30;3.78;;;7.80;99.90;;;;;;5055004;28;20121;-86
2022/01/18 13:28:02;;;;;;;13.80;4.43;;;7.70;99.90;;;;;;4989132;28;20216;-86
2022/01/18 13:30:29;;;;;;;15.10;4.50;;;7.70;99.90;;;;;;5041532;28;20061;-87
2022/01/18 13:32:58;;;;;;;13.10;5.10;;;7.70;99.90;;;;;;5056216;28;20125;-86
2022/01/18 13:35:26;;;;;;;12.32;4.40;;;7.70;99.90;;;;;;5058025;28;20062;-87
2022/01/18 13:37:55;;;;;;;13.82;4.50;;;7.60;99.90;;;;;;5056177;28;20050;-87
2022/01/18 13:40:21;;;;;;;16.70;4.75;;;7.60;99.90;;;;;;5038829;28;20058;-87
2022/01/18 13:42:51;;;;;;;17.00;4.57;;;7.60;99.90;;;;;;4990296;28;20080;-88
2022/01/18 13:45:19;;;;;;;16.15;4.35;;;7.50;99.90;;;;;;5059092;28;20412;-87
2022/01/18 13:48:00;;;;;;;16.30;4.47;;;7.60;99.90;;;;;;5058402;28;20057;-88
2022/01/18 13:50:51;;;;;;;12.98;3.72;;;7.40;99.90;;;;;;4990139;28;20050;-87
2022/01/18 13:53:23;;;;;;;14.25;4.78;;;7.50;99.90;;;;;;5056650;28;20054;-87
2022/01/18 13:56:00;;;;;;;19.13;4.68;;;7.60;99.90;;;;;;5055724;28;20434;-88
2022/01/18 13:58:37;;;;;;;15.00;4.90;;;7.50;99.90;;;;;;5039947;28;20050;-87
2022/01/18 14:01:28;;;;;;;18.02;5.05;;;7.40;99.90;;;;;;4988895;28;20054;-87
2022/01/18 14:04:02;;;;;;;17.60;5.68;;;7.50;99.90;;;;;;5041647;28;20054;-88
2022/01/18 14:06:32;;;;;;;;;;;7.40;99.90;;;;;;5057108;28;20066;-86
2022/01/18 14:08:58;;;;;;;16.73;5.70;;;7.40;99.90;;;;;;4990138;28;20112;-87
2022/01/18 14:11:32;;;;;;;17.73;5.45;;;7.40;99.90;;;;;;4989005;28;20050;-88
2022/01/18 14:13:58;;;;;;;16.60;5.30;;;7.50;99.90;;;;;;5039344;28;20440;-86